sensor_id;sensor_type;location;lat;lon;timestamp;temperature;humidity
25923;DHT22;13725;51.170;4.442;2023-02-21T00:02:37;9.60;99.90
25923;DHT22;13725;51.170;4.442;2023-02-21T00:05:22;9.60;99.90
25923;DHT22;13725;51.170;4.442;2023-02-21T00:08:07;9.60;99.90
25923;DHT22;13725;51.170;4.442;2023-02-21T00:10:51;9.50;99.90
25923;DHT22;13725;51.170;4.442;2023-02-21T00:13:36;9.50;99.90
25923;DHT22;13725;51.170;4.442;2023-02-21T00:16:21;9.60;99.90
25923;DHT22;13725;51.170;4.442;2023-02-21T00:19:06;9.40;99.90
25923;DHT22;13725;51.170;4.442;2023-02-21T00:21:50;9.50;99.90
25923;DHT22;13725;51.170;4.442;2023-02-21T00:24:35;9.50;99.90
25923;DHT22;13725;51.170;4.442;2023-02-21T00:27:19;9.50;99.90
25923;DHT22;13725;51.170;4.442;2023-02-21T00:30:04;9.50;99.90
25923;DHT22;13725;51.170;4.442;2023-02-21T00:32:49;9.50;99.90
25923;DHT22;13725;51.170;4.442;2023-02-21T00:35:33;9.40;99.90
25923;DHT22;13725;51.170;4.442;2023-02-21T00:38:17;9.40;99.90
25923;DHT22;13725;51.170;4.442;2023-02-21T00:41:01;9.50;99.90
25923;DHT22;13725;51.170;4.442;2023-02-21T00:43:46;9.50;99.90
25923;DHT22;13725;51.170;4.442;2023-02-21T00:46:30;9.40;99.90
25923;DHT22;13725;51.170;4.442;2023-02-21T00:49:14;9.50;99.90
25923;DHT22;13725;51.170;4.442;2023-02-21T00:51:58;9.50;99.90
25923;DHT22;13725;51.170;4.442;2023-02-21T00:54:43;9.50;99.90
25923;DHT22;13725;51.170;4.442;2023-02-21T00:57:27;9.30;99.90
25923;DHT22;13725;51.170;4.442;2023-02-21T01:00:21;9.30;99.90
25923;DHT22;13725;51.170;4.442;2023-02-21T01:03:07;9.30;99.90
25923;DHT22;13725;51.170;4.442;2023-02-21T01:05:51;9.30;99.90
25923;DHT22;13725;51.170;4.442;2023-02-21T01:08:35;9.40;99.90
25923;DHT22;13725;51.170;4.442;2023-02-21T01:11:21;9.40;99.90
25923;DHT22;13725;51.170;4.442;2023-02-21T01:14:06;9.50;99.90
25923;DHT22;13725;51.170;4.442;2023-02-21T01:16:50;9.50;99.90
25923;DHT22;13725;51.170;4.442;2023-02-21T01:19:35;9.50;99.90
25923;DHT22;13725;51.170;4.442;2023-02-21T01:22:19;9.40;99.90
25923;DHT22;13725;51.170;4.442;2023-02-21T01:25:05;9.30;99.90
25923;DHT22;13725;51.170;4.442;2023-02-21T01:27:51;9.30;99.90
25923;DHT22;13725;51.170;4.442;2023-02-21T01:30:36;9.30;99.90
25923;DHT22;13725;51.170;4.442;2023-02-21T01:33:20;9.40;99.90
25923;DHT22;13725;51.170;4.442;2023-02-21T01:36:05;9.30;99.90
25923;DHT22;13725;51.170;4.442;2023-02-21T01:38:49;9.30;99.90
25923;DHT22;13725;51.170;4.442;2023-02-21T01:41:35;9.40;99.90
25923;DHT22;13725;51.170;4.442;2023-02-21T01:44:40;9.40;99.90
25923;DHT22;13725;51.170;4.442;2023-02-21T01:47:25;9.40;99.90
25923;DHT22;13725;51.170;4.442;2023-02-21T01:50:17;9.30;99.90
25923;DHT22;13725;51.170;4.442;2023-02-21T01:53:06;9.30;99.90
25923;DHT22;13725;51.170;4.442;2023-02-21T01:55:54;9.30;99.90
25923;DHT22;13725;51.170;4.442;2023-02-21T01:58:39;9.30;99.90
25923;DHT22;13725;51.170;4.442;2023-02-21T02:01:55;9.30;99.90
25923;DHT22;13725;51.170;4.442;2023-02-21T02:04:41;9.30;99.90
25923;DHT22;13725;51.170;4.442;2023-02-21T02:07:27;9.20;99.90
25923;DHT22;13725;51.170;4.442;2023-02-21T02:10:11;9.20;99.90
25923;DHT22;13725;51.170;4.442;2023-02-21T02:16:07;9.20;99.90
25923;DHT22;13725;51.170;4.442;2023-02-21T02:24:33;9.20;99.90
25923;DHT22;13725;51.170;4.442;2023-02-21T02:41:05;9.20;99.90
25923;DHT22;13725;51.170;4.442;2023-02-21T02:43:54;9.20;99.90
25923;DHT22;13725;51.170;4.442;2023-02-21T02:46:26;9.10;99.90
25923;DHT22;13725;51.170;4.442;2023-02-21T02:49:13;9.10;99.90
25923;DHT22;13725;51.170;4.442;2023-02-21T02:51:40;9.10;99.90
25923;DHT22;13725;51.170;4.442;2023-02-21T02:54:08;9.20;99.90
25923;DHT22;13725;51.170;4.442;2023-02-21T02:56:34;9.30;99.90
25923;DHT22;13725;51.170;4.442;2023-02-21T02:59:08;9.30;99.90
25923;DHT22;13725;51.170;4.442;2023-02-21T03:01:39;9.20;99.90
25923;DHT22;13725;51.170;4.442;2023-02-21T03:10:17;9.10;99.90
25923;DHT22;13725;51.170;4.442;2023-02-21T03:13:04;9.00;99.90
25923;DHT22;13725;51.170;4.442;2023-02-21T03:15:38;9.00;99.90
25923;DHT22;13725;51.170;4.442;2023-02-21T03:18:16;8.80;99.90
25923;DHT22;13725;51.170;4.442;2023-02-21T03:20:44;8.80;99.90
25923;DHT22;13725;51.170;4.442;2023-02-21T03:23:13;8.70;99.90
25923;DHT22;13725;51.170;4.442;2023-02-21T03:25:40;8.80;99.90
25923;DHT22;13725;51.170;4.442;2023-02-21T03:28:08;8.80;99.90
25923;DHT22;13725;51.170;4.442;2023-02-21T03:30:40;8.70;99.90
25923;DHT22;13725;51.170;4.442;2023-02-21T03:33:07;8.70;99.90
25923;DHT22;13725;51.170;4.442;2023-02-21T03:35:33;8.70;99.90
25923;DHT22;13725;51.170;4.442;2023-02-21T03:37:59;8.60;99.90
25923;DHT22;13725;51.170;4.442;2023-02-21T03:40:31;8.70;99.90
25923;DHT22;13725;51.170;4.442;2023-02-21T03:42:59;8.70;99.90
25923;DHT22;13725;51.170;4.442;2023-02-21T03:45:28;8.80;99.90
25923;DHT22;13725;51.170;4.442;2023-02-21T03:48:20;8.80;99.90
25923;DHT22;13725;51.170;4.442;2023-02-21T03:50:46;8.80;99.90
25923;DHT22;13725;51.170;4.442;2023-02-21T03:53:14;8.60;99.90
25923;DHT22;13725;51.170;4.442;2023-02-21T03:55:42;8.60;99.90
25923;DHT22;13725;51.170;4.442;2023-02-21T03:58:14;8.60;99.90
25923;DHT22;13725;51.170;4.442;2023-02-21T04:00:40;8.60;99.90
25923;DHT22;13725;51.170;4.442;2023-02-21T04:03:06;8.60;99.90
25923;DHT22;13725;51.170;4.442;2023-02-21T04:05:37;8.60;99.90
25923;DHT22;13725;51.170;4.442;2023-02-21T04:08:03;8.60;99.90
25923;DHT22;13725;51.170;4.442;2023-02-21T04:10:30;8.60;99.90
25923;DHT22;13725;51.170;4.442;2023-02-21T04:12:55;8.80;99.90
25923;DHT22;13725;51.170;4.442;2023-02-21T04:15:21;8.80;99.90
25923;DHT22;13725;51.170;4.442;2023-02-21T04:17:47;8.60;99.90
25923;DHT22;13725;51.170;4.442;2023-02-21T04:20:13;8.60;99.90
25923;DHT22;13725;51.170;4.442;2023-02-21T04:22:44;8.70;99.90
25923;DHT22;13725;51.170;4.442;2023-02-21T04:25:10;8.70;99.90
25923;DHT22;13725;51.170;4.442;2023-02-21T04:27:42;8.70;99.90
25923;DHT22;13725;51.170;4.442;2023-02-21T04:30:09;8.50;99.90
25923;DHT22;13725;51.170;4.442;2023-02-21T04:32:35;8.60;99.90
25923;DHT22;13725;51.170;4.442;2023-02-21T04:35:06;8.70;99.90
25923;DHT22;13725;51.170;4.442;2023-02-21T04:37:33;8.60;99.90
25923;DHT22;13725;51.170;4.442;2023-02-21T04:39:59;8.60;99.90
25923;DHT22;13725;51.170;4.442;2023-02-21T04:42:24;8.70;99.90
25923;DHT22;13725;51.170;4.442;2023-02-21T04:44:50;8.50;99.90
25923;DHT22;13725;51.170;4.442;2023-02-21T04:47:16;8.50;99.90
25923;DHT22;13725;51.170;4.442;2023-02-21T04:49:42;8.40;99.90
25923;DHT22;13725;51.170;4.442;2023-02-21T04:52:07;8.50;99.90
25923;DHT22;13725;51.170;4.442;2023-02-21T04:54:33;8.50;99.90
25923;DHT22;13725;51.170;4.442;2023-02-21T04:56:59;8.50;99.90
25923;DHT22;13725;51.170;4.442;2023-02-21T04:59:24;8.60;99.90
25923;DHT22;13725;51.170;4.442;2023-02-21T05:01:50;8.60;99.90
25923;DHT22;13725;51.170;4.442;2023-02-21T05:04:16;8.50;99.90
25923;DHT22;13725;51.170;4.442;2023-02-21T05:06:42;8.50;99.90
25923;DHT22;13725;51.170;4.442;2023-02-21T05:09:08;8.50;99.90
25923;DHT22;13725;51.170;4.442;2023-02-21T05:11:34;8.50;99.90
25923;DHT22;13725;51.170;4.442;2023-02-21T05:13:59;8.50;99.90
25923;DHT22;13725;51.170;4.442;2023-02-21T05:16:25;8.50;99.90
25923;DHT22;13725;51.170;4.442;2023-02-21T05:18:51;8.50;99.90
25923;DHT22;13725;51.170;4.442;2023-02-21T05:21:18;8.50;99.90
25923;DHT22;13725;51.170;4.442;2023-02-21T05:23:44;8.50;99.90
25923;DHT22;13725;51.170;4.442;2023-02-21T05:26:24;8.60;99.90
25923;DHT22;13725;51.170;4.442;2023-02-21T05:28:50;8.40;99.90
25923;DHT22;13725;51.170;4.442;2023-02-21T05:31:17;8.40;99.90
25923;DHT22;13725;51.170;4.442;2023-02-21T05:33:43;8.40;99.90
25923;DHT22;13725;51.170;4.442;2023-02-21T05:36:09;8.40;99.90
25923;DHT22;13725;51.170;4.442;2023-02-21T05:38:44;8.40;99.90
25923;DHT22;13725;51.170;4.442;2023-02-21T05:41:10;8.40;99.90
25923;DHT22;13725;51.170;4.442;2023-02-21T05:43:36;8.30;99.90
25923;DHT22;13725;51.170;4.442;2023-02-21T05:46:01;8.40;99.90
25923;DHT22;13725;51.170;4.442;2023-02-21T05:48:27;8.50;99.90
25923;DHT22;13725;51.170;4.442;2023-02-21T05:50:53;8.40;99.90
25923;DHT22;13725;51.170;4.442;2023-02-21T05:53:18;8.40;99.90
25923;DHT22;13725;51.170;4.442;2023-02-21T05:55:44;8.40;99.90
25923;DHT22;13725;51.170;4.442;2023-02-21T05:58:10;8.40;99.90
25923;DHT22;13725;51.170;4.442;2023-02-21T06:00:35;8.50;99.90
25923;DHT22;13725;51.170;4.442;2023-02-21T06:03:01;8.40;99.90
25923;DHT22;13725;51.170;4.442;2023-02-21T06:05:27;8.50;99.90
25923;DHT22;13725;51.170;4.442;2023-02-21T06:07:52;8.50;99.90
25923;DHT22;13725;51.170;4.442;2023-02-21T06:10:18;8.60;99.90
25923;DHT22;13725;51.170;4.442;2023-02-21T06:12:44;8.60;99.90
25923;DHT22;13725;51.170;4.442;2023-02-21T06:15:10;8.60;99.90
25923;DHT22;13725;51.170;4.442;2023-02-21T06:17:38;8.60;99.90
25923;DHT22;13725;51.170;4.442;2023-02-21T06:20:05;8.60;99.90
25923;DHT22;13725;51.170;4.442;2023-02-21T06:22:31;8.60;99.90
25923;DHT22;13725;51.170;4.442;2023-02-21T06:24:56;8.60;99.90
25923;DHT22;13725;51.170;4.442;2023-02-21T06:27:22;8.60;99.90
25923;DHT22;13725;51.170;4.442;2023-02-21T06:29:48;8.60;99.90
25923;DHT22;13725;51.170;4.442;2023-02-21T06:32:14;8.60;99.90
25923;DHT22;13725;51.170;4.442;2023-02-21T06:34:39;8.60;99.90
25923;DHT22;13725;51.170;4.442;2023-02-21T06:37:05;8.60;99.90
25923;DHT22;13725;51.170;4.442;2023-02-21T06:39:31;8.50;99.90
25923;DHT22;13725;51.170;4.442;2023-02-21T06:41:57;8.60;99.90
25923;DHT22;13725;51.170;4.442;2023-02-21T06:44:24;8.60;99.90
25923;DHT22;13725;51.170;4.442;2023-02-21T06:46:50;8.50;99.90
25923;DHT22;13725;51.170;4.442;2023-02-21T06:49:15;8.50;99.90
25923;DHT22;13725;51.170;4.442;2023-02-21T06:51:41;8.60;99.90
25923;DHT22;13725;51.170;4.442;2023-02-21T06:54:08;8.40;99.90
25923;DHT22;13725;51.170;4.442;2023-02-21T06:56:34;8.40;99.90
25923;DHT22;13725;51.170;4.442;2023-02-21T06:59:00;8.30;99.90
25923;DHT22;13725;51.170;4.442;2023-02-21T07:01:27;8.40;99.90
25923;DHT22;13725;51.170;4.442;2023-02-21T07:03:54;8.30;99.90
25923;DHT22;13725;51.170;4.442;2023-02-21T07:06:20;8.30;99.90
25923;DHT22;13725;51.170;4.442;2023-02-21T07:08:46;8.30;99.90
25923;DHT22;13725;51.170;4.442;2023-02-21T07:11:13;8.20;99.90
25923;DHT22;13725;51.170;4.442;2023-02-21T07:13:39;8.20;99.90
25923;DHT22;13725;51.170;4.442;2023-02-21T07:16:04;8.30;99.90
25923;DHT22;13725;51.170;4.442;2023-02-21T07:18:30;8.30;99.90
25923;DHT22;13725;51.170;4.442;2023-02-21T07:20:56;8.30;99.90
25923;DHT22;13725;51.170;4.442;2023-02-21T07:23:22;8.40;99.90
25923;DHT22;13725;51.170;4.442;2023-02-21T07:25:48;8.40;99.90
25923;DHT22;13725;51.170;4.442;2023-02-21T07:28:14;8.40;99.90
25923;DHT22;13725;51.170;4.442;2023-02-21T07:30:40;8.40;99.90
25923;DHT22;13725;51.170;4.442;2023-02-21T07:33:06;8.50;99.90
25923;DHT22;13725;51.170;4.442;2023-02-21T07:35:32;8.40;99.90
25923;DHT22;13725;51.170;4.442;2023-02-21T07:37:58;8.50;99.90
25923;DHT22;13725;51.170;4.442;2023-02-21T07:40:23;8.50;99.90
25923;DHT22;13725;51.170;4.442;2023-02-21T07:42:49;8.50;99.90
25923;DHT22;13725;51.170;4.442;2023-02-21T07:45:16;8.50;99.90
25923;DHT22;13725;51.170;4.442;2023-02-21T07:47:41;8.60;99.90
25923;DHT22;13725;51.170;4.442;2023-02-21T07:50:09;8.60;99.90
25923;DHT22;13725;51.170;4.442;2023-02-21T07:52:34;8.70;99.90
25923;DHT22;13725;51.170;4.442;2023-02-21T07:55:00;8.60;99.90
25923;DHT22;13725;51.170;4.442;2023-02-21T07:57:26;8.50;99.90
25923;DHT22;13725;51.170;4.442;2023-02-21T07:59:52;8.50;99.90
25923;DHT22;13725;51.170;4.442;2023-02-21T08:02:18;8.50;99.90
25923;DHT22;13725;51.170;4.442;2023-02-21T08:04:43;8.50;99.90
25923;DHT22;13725;51.170;4.442;2023-02-21T08:07:09;8.40;99.90
25923;DHT22;13725;51.170;4.442;2023-02-21T08:09:35;8.30;99.90
25923;DHT22;13725;51.170;4.442;2023-02-21T08:12:02;8.40;99.90
25923;DHT22;13725;51.170;4.442;2023-02-21T08:14:27;8.50;99.90
25923;DHT22;13725;51.170;4.442;2023-02-21T08:16:53;8.50;99.90
25923;DHT22;13725;51.170;4.442;2023-02-21T08:19:19;8.50;99.90
25923;DHT22;13725;51.170;4.442;2023-02-21T08:21:48;8.60;99.90
25923;DHT22;13725;51.170;4.442;2023-02-21T08:24:14;8.70;99.90
25923;DHT22;13725;51.170;4.442;2023-02-21T08:26:41;8.70;99.90
25923;DHT22;13725;51.170;4.442;2023-02-21T08:29:07;8.60;99.90
25923;DHT22;13725;51.170;4.442;2023-02-21T08:31:35;8.60;99.90
25923;DHT22;13725;51.170;4.442;2023-02-21T08:34:01;8.40;99.90
25923;DHT22;13725;51.170;4.442;2023-02-21T08:36:34;8.40;99.90
25923;DHT22;13725;51.170;4.442;2023-02-21T08:39:00;8.50;99.90
25923;DHT22;13725;51.170;4.442;2023-02-21T08:41:34;8.50;99.90
25923;DHT22;13725;51.170;4.442;2023-02-21T08:44:00;8.60;99.90
25923;DHT22;13725;51.170;4.442;2023-02-21T08:46:26;8.60;99.90
25923;DHT22;13725;51.170;4.442;2023-02-21T08:48:51;8.60;99.90
25923;DHT22;13725;51.170;4.442;2023-02-21T08:51:17;8.70;99.90
25923;DHT22;13725;51.170;4.442;2023-02-21T08:53:43;8.60;99.90
25923;DHT22;13725;51.170;4.442;2023-02-21T08:56:08;8.50;99.90
25923;DHT22;13725;51.170;4.442;2023-02-21T08:58:35;8.60;99.90
25923;DHT22;13725;51.170;4.442;2023-02-21T09:01:01;8.70;99.90
25923;DHT22;13725;51.170;4.442;2023-02-21T09:03:26;8.70;99.90
25923;DHT22;13725;51.170;4.442;2023-02-21T09:05:52;8.70;99.90
25923;DHT22;13725;51.170;4.442;2023-02-21T09:08:18;8.80;99.90
25923;DHT22;13725;51.170;4.442;2023-02-21T09:10:45;8.80;99.90
25923;DHT22;13725;51.170;4.442;2023-02-21T09:13:12;8.90;99.90
25923;DHT22;13725;51.170;4.442;2023-02-21T09:15:37;8.90;99.90
25923;DHT22;13725;51.170;4.442;2023-02-21T09:18:03;9.10;99.90
25923;DHT22;13725;51.170;4.442;2023-02-21T09:20:30;9.10;99.90
25923;DHT22;13725;51.170;4.442;2023-02-21T09:22:56;9.20;99.90
25923;DHT22;13725;51.170;4.442;2023-02-21T09:25:23;9.30;99.90
25923;DHT22;13725;51.170;4.442;2023-02-21T09:27:50;8.90;99.90
25923;DHT22;13725;51.170;4.442;2023-02-21T09:30:22;8.80;99.90
25923;DHT22;13725;51.170;4.442;2023-02-21T09:32:49;8.80;99.90
25923;DHT22;13725;51.170;4.442;2023-02-21T09:35:15;8.80;99.90
25923;DHT22;13725;51.170;4.442;2023-02-21T09:37:43;8.70;99.90
25923;DHT22;13725;51.170;4.442;2023-02-21T09:42:54;8.80;99.90
25923;DHT22;13725;51.170;4.442;2023-02-21T09:45:21;8.70;99.90
25923;DHT22;13725;51.170;4.442;2023-02-21T09:47:50;8.90;99.90
25923;DHT22;13725;51.170;4.442;2023-02-21T09:50:22;8.90;99.90
25923;DHT22;13725;51.170;4.442;2023-02-21T09:52:52;8.90;99.90
25923;DHT22;13725;51.170;4.442;2023-02-21T09:57:52;8.90;99.90
25923;DHT22;13725;51.170;4.442;2023-02-21T10:00:31;8.90;99.90
25923;DHT22;13725;51.170;4.442;2023-02-21T10:05:47;9.00;99.90
25923;DHT22;13725;51.170;4.442;2023-02-21T10:08:45;9.10;99.90
25923;DHT22;13725;51.170;4.442;2023-02-21T10:14:32;9.20;99.90
25923;DHT22;13725;51.170;4.442;2023-02-21T10:17:21;9.30;99.90
25923;DHT22;13725;51.170;4.442;2023-02-21T10:19:54;9.20;99.90
25923;DHT22;13725;51.170;4.442;2023-02-21T10:22:32;9.30;99.90
25923;DHT22;13725;51.170;4.442;2023-02-21T10:25:22;9.40;99.90
25923;DHT22;13725;51.170;4.442;2023-02-21T10:27:45;9.60;99.90
25923;DHT22;13725;51.170;4.442;2023-02-21T10:30:20;9.60;99.90
25923;DHT22;13725;51.170;4.442;2023-02-21T10:32:48;9.50;99.90
25923;DHT22;13725;51.170;4.442;2023-02-21T10:35:14;9.40;99.90
25923;DHT22;13725;51.170;4.442;2023-02-21T10:37:46;9.60;99.90
25923;DHT22;13725;51.170;4.442;2023-02-21T10:43:00;9.70;99.90
25923;DHT22;13725;51.170;4.442;2023-02-21T10:45:32;9.90;99.90
25923;DHT22;13725;51.170;4.442;2023-02-21T10:48:05;9.90;99.90
25923;DHT22;13725;51.170;4.442;2023-02-21T10:50:50;9.70;99.90
25923;DHT22;13725;51.170;4.442;2023-02-21T10:53:29;9.80;99.90
25923;DHT22;13725;51.170;4.442;2023-02-21T10:59:05;9.80;99.90
25923;DHT22;13725;51.170;4.442;2023-02-21T11:01:44;9.90;99.90
25923;DHT22;13725;51.170;4.442;2023-02-21T11:07:07;10.20;99.90
25923;DHT22;13725;51.170;4.442;2023-02-21T11:09:42;10.10;99.90
25923;DHT22;13725;51.170;4.442;2023-02-21T11:14:41;10.10;99.90
25923;DHT22;13725;51.170;4.442;2023-02-21T11:17:11;9.80;99.90
25923;DHT22;13725;51.170;4.442;2023-02-21T11:19:56;9.80;99.90
25923;DHT22;13725;51.170;4.442;2023-02-21T11:25:47;10.00;99.90
25923;DHT22;13725;51.170;4.442;2023-02-21T11:28:06;10.00;99.90
25923;DHT22;13725;51.170;4.442;2023-02-21T11:33:26;10.20;99.90
25923;DHT22;13725;51.170;4.442;2023-02-21T11:38:39;10.20;99.90
25923;DHT22;13725;51.170;4.442;2023-02-21T11:43:59;10.20;99.90
25923;DHT22;13725;51.170;4.442;2023-02-21T11:46:47;10.00;99.90
25923;DHT22;13725;51.170;4.442;2023-02-21T11:50:09;10.00;99.90
25923;DHT22;13725;51.170;4.442;2023-02-21T11:52:12;10.00;99.90
25923;DHT22;13725;51.170;4.442;2023-02-21T11:54:39;10.20;99.90
25923;DHT22;13725;51.170;4.442;2023-02-21T11:59:56;10.20;99.90
25923;DHT22;13725;51.170;4.442;2023-02-21T12:02:40;10.30;99.90
25923;DHT22;13725;51.170;4.442;2023-02-21T12:10:54;10.30;99.90
25923;DHT22;13725;51.170;4.442;2023-02-21T12:16:40;10.50;99.90
25923;DHT22;13725;51.170;4.442;2023-02-21T12:35:50;10.20;99.90
25923;DHT22;13725;51.170;4.442;2023-02-21T12:44:11;9.80;99.90
25923;DHT22;13725;51.170;4.442;2023-02-21T12:47:06;9.90;99.90
25923;DHT22;13725;51.170;4.442;2023-02-21T12:49:51;10.00;99.90
25923;DHT22;13725;51.170;4.442;2023-02-21T12:52:34;10.10;99.90
25923;DHT22;13725;51.170;4.442;2023-02-21T12:58:12;10.10;99.90
25923;DHT22;13725;51.170;4.442;2023-02-21T13:01:30;10.20;99.90
25923;DHT22;13725;51.170;4.442;2023-02-21T13:04:02;10.30;99.90
25923;DHT22;13725;51.170;4.442;2023-02-21T13:06:32;10.30;99.90
25923;DHT22;13725;51.170;4.442;2023-02-21T13:14:23;10.10;99.90
25923;DHT22;13725;51.170;4.442;2023-02-21T13:16:52;10.00;99.90
25923;DHT22;13725;51.170;4.442;2023-02-21T13:19:18;10.10;99.90
25923;DHT22;13725;51.170;4.442;2023-02-21T13:30:45;10.20;99.90
25923;DHT22;13725;51.170;4.442;2023-02-21T13:32:56;10.00;99.90
25923;DHT22;13725;51.170;4.442;2023-02-21T13:35:41;10.20;99.90
25923;DHT22;13725;51.170;4.442;2023-02-21T13:38:09;10.20;99.90
25923;DHT22;13725;51.170;4.442;2023-02-21T13:40:37;10.10;99.90
25923;DHT22;13725;51.170;4.442;2023-02-21T13:43:32;10.10;99.90
25923;DHT22;13725;51.170;4.442;2023-02-21T13:46:22;10.10;99.90
25923;DHT22;13725;51.170;4.442;2023-02-21T13:51:53;10.10;99.90
25923;DHT22;13725;51.170;4.442;2023-02-21T13:55:08;10.30;99.90
25923;DHT22;13725;51.170;4.442;2023-02-21T13:57:37;10.40;99.90
25923;DHT22;13725;51.170;4.442;2023-02-21T14:03:01;10.50;99.90
25923;DHT22;13725;51.170;4.442;2023-02-21T14:10:57;10.60;99.90
25923;DHT22;13725;51.170;4.442;2023-02-21T14:13:47;10.40;99.90
25923;DHT22;13725;51.170;4.442;2023-02-21T14:16:17;10.20;99.90
25923;DHT22;13725;51.170;4.442;2023-02-21T14:19:07;10.30;99.90
25923;DHT22;13725;51.170;4.442;2023-02-21T14:21:42;10.40;99.90
25923;DHT22;13725;51.170;4.442;2023-02-21T14:26:54;10.30;99.90
25923;DHT22;13725;51.170;4.442;2023-02-21T14:29:39;10.40;99.90
25923;DHT22;13725;51.170;4.442;2023-02-21T14:37:15;10.80;99.90
25923;DHT22;13725;51.170;4.442;2023-02-21T14:39:51;10.90;99.90
25923;DHT22;13725;51.170;4.442;2023-02-21T14:42:36;10.70;99.90
25923;DHT22;13725;51.170;4.442;2023-02-21T14:59:20;10.80;99.90
25923;DHT22;13725;51.170;4.442;2023-02-21T15:02:06;10.70;99.90
25923;DHT22;13725;51.170;4.442;2023-02-21T15:04:50;10.50;99.90
25923;DHT22;13725;51.170;4.442;2023-02-21T15:07:32;10.50;99.90
25923;DHT22;13725;51.170;4.442;2023-02-21T15:13:05;10.40;99.90
25923;DHT22;13725;51.170;4.442;2023-02-21T15:15:39;10.40;99.90
25923;DHT22;13725;51.170;4.442;2023-02-21T15:18:07;10.30;99.90
25923;DHT22;13725;51.170;4.442;2023-02-21T15:20:35;10.40;99.90
25923;DHT22;13725;51.170;4.442;2023-02-21T15:23:19;10.40;99.90
25923;DHT22;13725;51.170;4.442;2023-02-21T15:25:53;10.30;99.90
25923;DHT22;13725;51.170;4.442;2023-02-21T15:28:24;10.30;99.90
25923;DHT22;13725;51.170;4.442;2023-02-21T15:31:09;10.10;99.90
25923;DHT22;13725;51.170;4.442;2023-02-21T15:33:38;10.20;99.90
25923;DHT22;13725;51.170;4.442;2023-02-21T15:36:27;10.30;99.90
25923;DHT22;13725;51.170;4.442;2023-02-21T15:39:02;10.40;99.90
25923;DHT22;13725;51.170;4.442;2023-02-21T15:46:44;10.20;99.90
25923;DHT22;13725;51.170;4.442;2023-02-21T15:49:23;10.20;99.90
25923;DHT22;13725;51.170;4.442;2023-02-21T15:51:50;10.20;99.90
25923;DHT22;13725;51.170;4.442;2023-02-21T15:56:41;10.20;99.90
25923;DHT22;13725;51.170;4.442;2023-02-21T15:59:09;10.20;99.90
25923;DHT22;13725;51.170;4.442;2023-02-21T16:01:35;10.20;99.90
25923;DHT22;13725;51.170;4.442;2023-02-21T16:04:21;10.10;99.90
25923;DHT22;13725;51.170;4.442;2023-02-21T16:06:55;10.10;99.90
25923;DHT22;13725;51.170;4.442;2023-02-21T16:09:24;10.10;99.90
25923;DHT22;13725;51.170;4.442;2023-02-21T16:12:03;10.00;99.90
25923;DHT22;13725;51.170;4.442;2023-02-21T16:14:56;9.90;99.90
25923;DHT22;13725;51.170;4.442;2023-02-21T16:17:29;10.00;99.90
25923;DHT22;13725;51.170;4.442;2023-02-21T16:20:01;9.90;99.90
25923;DHT22;13725;51.170;4.442;2023-02-21T16:22:37;10.00;99.90
25923;DHT22;13725;51.170;4.442;2023-02-21T16:25:23;9.90;99.90
25923;DHT22;13725;51.170;4.442;2023-02-21T16:27:55;10.00;99.90
25923;DHT22;13725;51.170;4.442;2023-02-21T16:30:23;10.00;99.90
25923;DHT22;13725;51.170;4.442;2023-02-21T16:32:50;10.00;99.90
25923;DHT22;13725;51.170;4.442;2023-02-21T16:35:20;9.90;99.90
25923;DHT22;13725;51.170;4.442;2023-02-21T16:37:55;9.90;99.90
25923;DHT22;13725;51.170;4.442;2023-02-21T16:40:33;9.90;99.90
25923;DHT22;13725;51.170;4.442;2023-02-21T16:43:00;9.90;99.90
25923;DHT22;13725;51.170;4.442;2023-02-21T16:45:27;9.80;99.90
25923;DHT22;13725;51.170;4.442;2023-02-21T16:47:58;9.80;99.90
25923;DHT22;13725;51.170;4.442;2023-02-21T16:52:58;9.80;99.90
25923;DHT22;13725;51.170;4.442;2023-02-21T16:55:24;9.80;99.90
25923;DHT22;13725;51.170;4.442;2023-02-21T16:57:52;9.70;99.90
25923;DHT22;13725;51.170;4.442;2023-02-21T17:00:20;9.80;99.90
25923;DHT22;13725;51.170;4.442;2023-02-21T17:02:47;9.80;99.90
25923;DHT22;13725;51.170;4.442;2023-02-21T17:05:13;9.70;99.90
25923;DHT22;13725;51.170;4.442;2023-02-21T17:07:39;9.60;99.90
25923;DHT22;13725;51.170;4.442;2023-02-21T17:10:05;9.60;99.90
25923;DHT22;13725;51.170;4.442;2023-02-21T17:12:31;9.60;99.90
25923;DHT22;13725;51.170;4.442;2023-02-21T17:14:56;9.40;99.90
25923;DHT22;13725;51.170;4.442;2023-02-21T17:17:22;9.50;99.90
25923;DHT22;13725;51.170;4.442;2023-02-21T17:19:48;9.50;99.90
25923;DHT22;13725;51.170;4.442;2023-02-21T17:22:14;9.50;99.90
25923;DHT22;13725;51.170;4.442;2023-02-21T17:24:41;9.40;99.90
25923;DHT22;13725;51.170;4.442;2023-02-21T17:27:07;9.40;99.90
25923;DHT22;13725;51.170;4.442;2023-02-21T17:29:32;9.30;99.90
25923;DHT22;13725;51.170;4.442;2023-02-21T17:31:58;9.30;99.90
25923;DHT22;13725;51.170;4.442;2023-02-21T17:34:27;9.20;99.90
25923;DHT22;13725;51.170;4.442;2023-02-21T17:36:52;9.30;99.90
25923;DHT22;13725;51.170;4.442;2023-02-21T17:39:19;9.20;99.90
25923;DHT22;13725;51.170;4.442;2023-02-21T17:41:46;9.30;99.90
25923;DHT22;13725;51.170;4.442;2023-02-21T17:44:12;9.30;99.90
25923;DHT22;13725;51.170;4.442;2023-02-21T17:46:38;9.20;99.90
25923;DHT22;13725;51.170;4.442;2023-02-21T17:49:04;9.20;99.90
25923;DHT22;13725;51.170;4.442;2023-02-21T17:51:29;9.20;99.90
25923;DHT22;13725;51.170;4.442;2023-02-21T17:53:55;9.20;99.90
25923;DHT22;13725;51.170;4.442;2023-02-21T17:56:22;9.20;99.90
25923;DHT22;13725;51.170;4.442;2023-02-21T17:58:49;9.20;99.90
25923;DHT22;13725;51.170;4.442;2023-02-21T18:01:18;9.20;99.90
25923;DHT22;13725;51.170;4.442;2023-02-21T18:03:46;9.10;99.90
25923;DHT22;13725;51.170;4.442;2023-02-21T18:06:12;8.90;99.90
25923;DHT22;13725;51.170;4.442;2023-02-21T18:08:38;8.80;99.90
25923;DHT22;13725;51.170;4.442;2023-02-21T18:11:05;8.80;99.90
25923;DHT22;13725;51.170;4.442;2023-02-21T18:13:32;8.90;99.90
25923;DHT22;13725;51.170;4.442;2023-02-21T18:15:58;8.90;99.90
25923;DHT22;13725;51.170;4.442;2023-02-21T18:18:25;8.90;99.90
25923;DHT22;13725;51.170;4.442;2023-02-21T18:20:51;9.00;99.90
25923;DHT22;13725;51.170;4.442;2023-02-21T18:23:17;8.90;99.90
25923;DHT22;13725;51.170;4.442;2023-02-21T18:25:43;8.90;99.90
25923;DHT22;13725;51.170;4.442;2023-02-21T18:28:09;8.80;99.90
25923;DHT22;13725;51.170;4.442;2023-02-21T18:30:34;8.80;99.90
25923;DHT22;13725;51.170;4.442;2023-02-21T18:33:00;8.80;99.90
25923;DHT22;13725;51.170;4.442;2023-02-21T18:35:26;8.70;99.90
25923;DHT22;13725;51.170;4.442;2023-02-21T18:37:52;8.70;99.90
25923;DHT22;13725;51.170;4.442;2023-02-21T18:40:18;8.70;99.90
25923;DHT22;13725;51.170;4.442;2023-02-21T18:42:44;8.70;99.90
25923;DHT22;13725;51.170;4.442;2023-02-21T18:45:11;8.70;99.90
25923;DHT22;13725;51.170;4.442;2023-02-21T18:47:37;8.80;99.90
25923;DHT22;13725;51.170;4.442;2023-02-21T18:50:03;8.70;99.90
25923;DHT22;13725;51.170;4.442;2023-02-21T18:52:29;8.70;99.90
25923;DHT22;13725;51.170;4.442;2023-02-21T18:54:55;8.70;99.90